Time;durP1;ratioP1;P1;durP2;ratioP2;P2;SDS_P1;SDS_P2;PMS_P1;PMS_P2;Temp;Humidity;BMP_temperature;BMP_pressure;BME280_temperature;BME280_humidity;BME280_pressure;Samples;Min_cycle;Max_cycle;Signal;HPM_P1;HPM_P2
2022/12/17 13:06:54;;;;;;;;;1.75;1.75;;;;;;;;5069441;28;10564;-69
2022/12/17 13:09:25;;;;;;;;;2.50;2.50;;;;;;;;5070215;28;10763;-71
2022/12/17 13:11:56;;;;;;;;;5.25;3.00;;;;;;;;5069155;28;10679;-69
2022/12/17 13:14:33;;;;;;;;;3.00;2.00;;;;;;;;5069402;28;10743;-68
2022/12/17 13:19:35;;;;;;;;;3.00;2.00;;;;;;;;5125409;27;13414;-72
2022/12/17 13:22:09;;;;;;;;;1.75;1.75;;;;;;;;5128423;27;10624;-73
2022/12/17 13:24:34;;;;;;;;;0.75;0.75;;;;;;;;5128590;27;11018;-79
2022/12/17 13:27:00;;;;;;;;;1.75;0.75;;;;;;;;5128315;27;10714;-77
2022/12/17 13:29:28;;;;;;;;;1.25;0.00;;;;;;;;5127116;27;8805;-78
2022/12/17 13:32:02;;;;;;;;;1.00;1.00;;;;;;;;5128652;27;8801;-76
2022/12/17 13:34:40;;;;;;;;;2.00;2.00;;;;;;;;5127340;27;10589;-75
2022/12/17 13:37:08;;;;;;;;;4.00;3.00;;;;;;;;5114385;28;10833;-76
2022/12/17 13:39:34;;;;;;;;;2.00;2.00;;;;;;;;5116663;28;11041;-80
2022/12/17 13:41:59;;;;;;;;;1.00;1.00;;;;;;;;5106453;28;11764;-80
2022/12/17 13:44:28;;;;;;;;;2.50;2.00;;;;;;;;5106311;28;8862;-78
2022/12/17 13:46:54;;;;;;;;;1.50;1.50;;;;;;;;5107480;28;8807;-77
2022/12/17 13:49:19;;;;;;;;;1.00;1.00;;;;;;;;5106278;28;11582;-79
2022/12/17 13:51:45;;;;;;;;;2.00;2.00;;;;;;;;5107262;28;8904;-82
2022/12/17 13:54:15;;;;;;;;;2.75;2.50;;;;;;;;5107356;28;8910;-80
2022/12/17 13:56:40;;;;;;;;;5.25;5.00;;;;;;;;5105942;28;8819;-78
2022/12/17 13:59:05;;;;;;;;;2.75;2.50;;;;;;;;5107327;28;10969;-77
2022/12/17 14:01:31;;;;;;;;;3.00;2.00;;;;;;;;5105808;28;9546;-79
2022/12/17 14:03:59;;;;;;;;;3.00;1.00;;;;;;;;5107287;28;8823;-76
2022/12/17 14:06:27;;;;;;;;;2.75;2.25;;;;;;;;5122671;27;8825;-77
2022/12/17 14:08:53;;;;;;;;;1.75;0.75;;;;;;;;5125515;27;10856;-77
2022/12/17 14:14:07;;;;;;;;;2.00;2.00;;;;;;;;5127127;27;10947;-73
2022/12/17 14:16:32;;;;;;;;;2.00;1.00;;;;;;;;5136185;27;10964;-73
2022/12/17 14:18:58;;;;;;;;;1.25;0.75;;;;;;;;5126871;27;10719;-72
2022/12/17 14:21:25;;;;;;;;;1.00;1.00;;;;;;;;5127821;27;8874;-78
2022/12/17 14:23:51;;;;;;;;;5.75;2.75;;;;;;;;5125964;27;8815;-76
2022/12/17 14:26:16;;;;;;;;;5.00;1.00;;;;;;;;5124255;27;10927;-74
2022/12/17 14:28:49;;;;;;;;;3.00;3.00;;;;;;;;5124803;27;11006;-75
2022/12/17 14:31:18;;;;;;;;;6.50;3.00;;;;;;;;5113408;28;8811;-74
2022/12/17 14:33:43;;;;;;;;;2.00;2.00;;;;;;;;5113391;28;10937;-72
2022/12/17 14:36:14;;;;;;;;;2.25;1.75;;;;;;;;5111892;27;11141;-73
2022/12/17 14:38:49;;;;;;;;;5.50;3.00;;;;;;;;5114649;27;8836;-73
2022/12/17 14:43:59;;;;;;;;;5.75;5.00;;;;;;;;5111265;28;11459;-77
2022/12/17 14:46:25;;;;;;;;;3.50;3.50;;;;;;;;5110868;27;11372;-78
2022/12/17 14:49:00;;;;;;;;;2.75;2.75;;;;;;;;5112400;28;11368;-81
2022/12/17 14:51:29;;;;;;;;;6.50;4.50;;;;;;;;5109929;28;11360;-80
2022/12/17 14:54:16;;;;;;;;;7.00;6.00;;;;;;;;5111392;28;11396;-82
2022/12/17 14:56:41;;;;;;;;;3.00;3.00;;;;;;;;5110734;28;11381;-81
2022/12/17 14:59:25;;;;;;;;;5.00;5.00;;;;;;;;5112513;28;11385;-88
2022/12/17 15:01:51;;;;;;;;;5.00;3.00;;;;;;;;5110430;28;8817;-84
2022/12/17 15:04:17;;;;;;;;;1.50;1.50;;;;;;;;5112356;28;11367;-84
2022/12/17 15:06:42;;;;;;;;;5.50;2.75;;;;;;;;5111989;28;11149;-82
2022/12/17 15:09:11;;;;;;;;;2.00;2.00;;;;;;;;5113371;28;8805;-86
2022/12/17 15:11:36;;;;;;;;;5.00;4.50;;;;;;;;5113500;27;8866;-83
2022/12/17 15:14:02;;;;;;;;;6.00;2.75;;;;;;;;5113000;28;11129;-81
2022/12/17 15:16:27;;;;;;;;;5.50;5.50;;;;;;;;5113377;28;8797;-85
2022/12/17 15:18:52;;;;;;;;;5.00;5.00;;;;;;;;5112766;28;8898;-86
2022/12/17 15:21:18;;;;;;;;;4.00;3.00;;;;;;;;5113213;28;8797;-77
2022/12/17 15:23:46;;;;;;;;;6.75;6.75;;;;;;;;5113184;28;8773;-82
2022/12/17 15:26:13;;;;;;;;;11.75;8.50;;;;;;;;5111314;28;8825;-78
2022/12/17 15:28:39;;;;;;;;;8.00;6.00;;;;;;;;5100804;27;11392;-79
2022/12/17 15:31:05;;;;;;;;;8.00;8.00;;;;;;;;5112194;28;11609;-82
2022/12/17 15:33:30;;;;;;;;;6.75;5.25;;;;;;;;5113003;28;8777;-83
2022/12/17 15:35:59;;;;;;;;;6.00;5.75;;;;;;;;5112806;28;8908;-82
2022/12/17 15:38:24;;;;;;;;;6.75;5.50;;;;;;;;5112523;28;9530;-82
2022/12/17 15:40:51;;;;;;;;;6.00;6.00;;;;;;;;5112037;28;11447;-80
2022/12/17 15:43:16;;;;;;;;;3.00;3.00;;;;;;;;5112619;28;8894;-81
2022/12/17 15:45:46;;;;;;;;;4.00;3.50;;;;;;;;5112015;28;11450;-81
2022/12/17 15:48:12;;;;;;;;;3.00;3.00;;;;;;;;5112454;28;8873;-79
2022/12/17 15:50:37;;;;;;;;;5.50;5.00;;;;;;;;5110587;28;11374;-86
2022/12/17 15:53:03;;;;;;;;;8.50;6.00;;;;;;;;5113611;28;12044;-77
2022/12/17 15:55:28;;;;;;;;;6.75;4.00;;;;;;;;5111125;28;8805;-76
2022/12/17 15:57:54;;;;;;;;;9.00;7.00;;;;;;;;5111353;28;8817;-76
2022/12/17 16:00:19;;;;;;;;;8.50;8.00;;;;;;;;5111402;28;8778;-78
2022/12/17 16:02:45;;;;;;;;;11.00;9.00;;;;;;;;5112314;28;8834;-77
2022/12/17 16:05:11;;;;;;;;;8.25;6.25;;;;;;;;5111211;28;8805;-79
2022/12/17 16:07:36;;;;;;;;;12.75;11.50;;;;;;;;5110778;28;11390;-80
2022/12/17 16:10:02;;;;;;;;;13.50;11.75;;;;;;;;5107530;27;8916;-87
2022/12/17 16:12:27;;;;;;;;;12.00;12.00;;;;;;;;5112870;28;8801;-86
2022/12/17 16:14:53;;;;;;;;;12.75;12.00;;;;;;;;5122214;28;8794;-85
2022/12/17 16:17:18;;;;;;;;;12.50;11.50;;;;;;;;5113016;28;8825;-78
2022/12/17 16:19:43;;;;;;;;;14.75;11.00;;;;;;;;5112571;28;8781;-87
2022/12/17 16:22:08;;;;;;;;;14.75;12.00;;;;;;;;5113156;28;8866;-82
2022/12/17 16:24:34;;;;;;;;;8.50;8.00;;;;;;;;5110585;28;8805;-78
2022/12/17 16:26:59;;;;;;;;;12.50;9.00;;;;;;;;5111390;28;8821;-79
2022/12/17 16:29:25;;;;;;;;;10.00;8.75;;;;;;;;5108452;28;8967;-79
2022/12/17 16:31:50;;;;;;;;;7.00;7.00;;;;;;;;5111560;28;8805;-79
2022/12/17 16:34:15;;;;;;;;;6.75;5.00;;;;;;;;5110245;28;8871;-81
2022/12/17 16:36:41;;;;;;;;;11.75;8.00;;;;;;;;5111685;28;8801;-80
2022/12/17 16:39:06;;;;;;;;;9.00;8.00;;;;;;;;5110641;28;8817;-79
2022/12/17 16:41:32;;;;;;;;;8.25;7.00;;;;;;;;5114097;28;8781;-80
2022/12/17 16:43:57;;;;;;;;;8.00;5.75;;;;;;;;5111809;28;8805;-77
2022/12/17 16:46:26;;;;;;;;;3.75;3.75;;;;;;;;5111416;28;8797;-79
2022/12/17 16:48:51;;;;;;;;;5.75;4.00;;;;;;;;5111352;28;8807;-79
2022/12/17 16:51:17;;;;;;;;;6.00;4.00;;;;;;;;5111164;28;12131;-78
2022/12/17 16:53:43;;;;;;;;;5.00;4.50;;;;;;;;5110728;28;8805;-79
2022/12/17 16:56:13;;;;;;;;;7.25;5.50;;;;;;;;5111057;28;11368;-80
2022/12/17 16:58:39;;;;;;;;;5.75;4.50;;;;;;;;5111154;28;8909;-79
2022/12/17 17:01:04;;;;;;;;;7.00;6.00;;;;;;;;5110622;28;11352;-79
2022/12/17 17:03:29;;;;;;;;;7.00;5.75;;;;;;;;5110103;28;8801;-80
2022/12/17 17:05:59;;;;;;;;;9.00;6.00;;;;;;;;5110961;28;8882;-79
2022/12/17 17:08:24;;;;;;;;;10.50;6.00;;;;;;;;5110467;28;8789;-78
2022/12/17 17:10:49;;;;;;;;;5.75;5.75;;;;;;;;5109383;28;11384;-79
2022/12/17 17:13:14;;;;;;;;;11.00;10.00;;;;;;;;5109361;28;8840;-81
2022/12/17 17:15:40;;;;;;;;;9.50;7.00;;;;;;;;5110786;28;8801;-78
2022/12/17 17:18:05;;;;;;;;;12.00;6.00;;;;;;;;5110130;28;8825;-77
2022/12/17 17:20:31;;;;;;;;;8.50;6.75;;;;;;;;5109724;28;8847;-77
2022/12/17 17:22:56;;;;;;;;;11.50;7.50;;;;;;;;5108989;28;8821;-77
2022/12/17 17:25:21;;;;;;;;;6.00;6.00;;;;;;;;5110148;28;9879;-79
2022/12/17 17:27:46;;;;;;;;;10.75;6.50;;;;;;;;5111305;28;8892;-80
2022/12/17 17:30:12;;;;;;;;;14.75;10.25;;;;;;;;5111420;28;9555;-79
2022/12/17 17:32:37;;;;;;;;;9.25;8.50;;;;;;;;5109575;28;8823;-83
2022/12/17 17:35:03;;;;;;;;;12.50;10.50;;;;;;;;5107253;28;8805;-78
2022/12/17 17:37:28;;;;;;;;;11.25;9.50;;;;;;;;5110411;28;8988;-76
2022/12/17 17:39:53;;;;;;;;;9.25;8.00;;;;;;;;5109296;28;8781;-77
2022/12/17 17:42:18;;;;;;;;;11.50;7.00;;;;;;;;5110290;28;8896;-76
2022/12/17 17:44:44;;;;;;;;;10.00;9.25;;;;;;;;5109081;28;8781;-77
2022/12/17 17:47:09;;;;;;;;;11.50;10.00;;;;;;;;5109833;28;8802;-77
2022/12/17 17:49:34;;;;;;;;;9.50;9.50;;;;;;;;5118128;27;8803;-78
2022/12/17 17:51:59;;;;;;;;;15.50;11.50;;;;;;;;5130813;27;8913;-78
2022/12/17 17:54:25;;;;;;;;;12.00;12.00;;;;;;;;5127547;27;8845;-78
2022/12/17 17:56:50;;;;;;;;;17.25;13.00;;;;;;;;5129200;27;8806;-78
2022/12/17 17:59:18;;;;;;;;;21.00;17.75;;;;;;;;5129758;27;8810;-78
2022/12/17 18:01:44;;;;;;;;;18.00;18.00;;;;;;;;5106954;27;9503;-78
2022/12/17 18:04:11;;;;;;;;;16.25;15.50;;;;;;;;5096913;27;11508;-78
2022/12/17 18:06:37;;;;;;;;;14.75;14.75;;;;;;;;5113754;28;11496;-78
2022/12/17 18:09:02;;;;;;;;;13.50;11.50;;;;;;;;5116494;27;11553;-78
2022/12/17 18:11:28;;;;;;;;;17.00;16.00;;;;;;;;5134716;27;8794;-79
2022/12/17 18:13:54;;;;;;;;;18.75;13.75;;;;;;;;5134571;27;8774;-78
2022/12/17 18:16:31;;;;;;;;;14.75;13.75;;;;;;;;5134281;27;11453;-76
2022/12/17 18:19:01;;;;;;;;;14.75;13.00;;;;;;;;5132880;27;8830;-84
2022/12/17 18:21:27;;;;;;;;;16.75;14.50;;;;;;;;5134466;27;11464;-79
2022/12/17 18:23:54;;;;;;;;;14.50;14.25;;;;;;;;5132630;27;11580;-78
2022/12/17 18:26:20;;;;;;;;;22.00;20.00;;;;;;;;5132805;27;11473;-78
2022/12/17 18:28:46;;;;;;;;;22.00;18.00;;;;;;;;5132605;27;12281;-78
2022/12/17 18:31:13;;;;;;;;;18.50;17.50;;;;;;;;5132896;27;11549;-80
2022/12/17 18:33:40;;;;;;;;;20.75;17.00;;;;;;;;5132634;27;11583;-84
2022/12/17 18:36:09;;;;;;;;;23.25;20.50;;;;;;;;5120971;27;11501;-77
2022/12/17 18:38:34;;;;;;;;;21.00;19.50;;;;;;;;5112917;28;11518;-79
2022/12/17 18:43:55;;;;;;;;;21.00;19.25;;;;;;;;5111685;28;8921;-79
2022/12/17 18:46:20;;;;;;;;;25.25;18.00;;;;;;;;5111538;28;11602;-80
2022/12/17 18:48:45;;;;;;;;;15.25;14.75;;;;;;;;5111456;28;9546;-76
2022/12/17 18:51:10;;;;;;;;;20.75;19.75;;;;;;;;5111177;28;8828;-80
2022/12/17 18:53:36;;;;;;;;;20.25;17.25;;;;;;;;5109577;28;9601;-81
2022/12/17 18:56:08;;;;;;;;;22.75;16.75;;;;;;;;5113275;28;8774;-78
2022/12/17 18:58:33;;;;;;;;;20.25;16.75;;;;;;;;5113263;28;8817;-79
2022/12/17 19:00:59;;;;;;;;;22.50;20.50;;;;;;;;5113499;28;11468;-74
2022/12/17 19:03:24;;;;;;;;;18.50;17.25;;;;;;;;5111378;27;8805;-74
2022/12/17 19:05:49;;;;;;;;;22.00;21.00;;;;;;;;5120807;27;8938;-75
2022/12/17 19:08:15;;;;;;;;;32.75;25.75;;;;;;;;5112011;28;8804;-74
2022/12/17 19:10:41;;;;;;;;;24.50;20.75;;;;;;;;5112309;28;8801;-77
2022/12/17 19:13:06;;;;;;;;;17.00;16.25;;;;;;;;5112576;27;8801;-75
2022/12/17 19:15:33;;;;;;;;;20.50;17.75;;;;;;;;5125043;27;11481;-80
2022/12/17 19:17:58;;;;;;;;;18.25;17.25;;;;;;;;5132855;27;8869;-74
2022/12/17 19:20:24;;;;;;;;;20.75;20.75;;;;;;;;5132658;27;12094;-76
2022/12/17 19:22:49;;;;;;;;;26.00;20.00;;;;;;;;5132894;27;8774;-81
2022/12/17 19:25:14;;;;;;;;;32.25;24.25;;;;;;;;5133085;27;8815;-77
2022/12/17 19:27:39;;;;;;;;;23.00;19.75;;;;;;;;5132943;27;8821;-77
2022/12/17 19:30:05;;;;;;;;;25.50;21.00;;;;;;;;5133061;27;8905;-74
2022/12/17 19:32:31;;;;;;;;;24.25;21.25;;;;;;;;5133160;27;8794;-73
2022/12/17 19:34:56;;;;;;;;;25.25;19.00;;;;;;;;5114601;27;9555;-78
2022/12/17 19:37:21;;;;;;;;;23.00;21.50;;;;;;;;5110599;28;8927;-72
2022/12/17 19:39:46;;;;;;;;;23.25;20.25;;;;;;;;5111979;28;8789;-72
2022/12/17 19:42:23;;;;;;;;;31.75;28.25;;;;;;;;5110784;27;8833;-74
2022/12/17 19:44:48;;;;;;;;;30.50;28.50;;;;;;;;5111502;28;8794;-72
2022/12/17 19:47:14;;;;;;;;;28.00;26.75;;;;;;;;5110626;27;11569;-76
2022/12/17 19:49:39;;;;;;;;;20.50;18.75;;;;;;;;5110487;28;8800;-78
2022/12/17 19:52:04;;;;;;;;;39.25;32.00;;;;;;;;5109850;28;8987;-75
2022/12/17 19:54:29;;;;;;;;;24.50;24.50;;;;;;;;5110109;28;8856;-75
2022/12/17 19:56:55;;;;;;;;;29.00;28.00;;;;;;;;5110386;28;9539;-75
2022/12/17 19:59:20;;;;;;;;;31.50;27.50;;;;;;;;5110114;28;8905;-76
2022/12/17 20:01:47;;;;;;;;;30.50;26.00;;;;;;;;5108776;28;8825;-75
2022/12/17 20:04:13;;;;;;;;;28.50;26.50;;;;;;;;5110044;28;8817;-75
2022/12/17 20:06:38;;;;;;;;;32.25;27.25;;;;;;;;5107094;28;11488;-74
2022/12/17 20:09:04;;;;;;;;;46.00;37.67;;;;;;;;5106915;28;11535;-76
2022/12/17 20:11:32;;;;;;;;;43.50;33.75;;;;;;;;5108703;28;8970;-75
2022/12/17 20:14:07;;;;;;;;;37.75;31.50;;;;;;;;5107821;28;8831;-75
2022/12/17 20:16:34;;;;;;;;;35.00;27.25;;;;;;;;5105008;28;11509;-75
2022/12/17 20:19:00;;;;;;;;;45.00;37.33;;;;;;;;5108297;28;11556;-76
2022/12/17 20:21:26;;;;;;;;;32.75;26.50;;;;;;;;5108734;28;11542;-73
2022/12/17 20:23:51;;;;;;;;;42.50;35.25;;;;;;;;5108075;28;11477;-73
2022/12/17 20:26:17;;;;;;;;;38.50;34.00;;;;;;;;5107972;28;8793;-75
2022/12/17 20:28:42;;;;;;;;;42.33;37.33;;;;;;;;5108087;28;8789;-77
2022/12/17 20:31:08;;;;;;;;;33.50;27.25;;;;;;;;5108461;28;8904;-81
2022/12/17 20:33:33;;;;;;;;;35.75;32.50;;;;;;;;5108513;28;8782;-79
2022/12/17 20:36:05;;;;;;;;;38.75;34.00;;;;;;;;5108841;28;8827;-80
2022/12/17 20:38:31;;;;;;;;;34.75;29.50;;;;;;;;5109423;28;8801;-75
2022/12/17 20:40:56;;;;;;;;;33.75;27.75;;;;;;;;5108288;28;12210;-77
2022/12/17 20:43:21;;;;;;;;;40.00;30.00;;;;;;;;5108218;28;8797;-75
2022/12/17 20:45:48;;;;;;;;;34.25;32.00;;;;;;;;5107952;28;8785;-74
2022/12/17 20:48:13;;;;;;;;;41.33;36.00;;;;;;;;5106518;28;9585;-74
2022/12/17 20:50:41;;;;;;;;;43.67;37.33;;;;;;;;5107727;28;11507;-74
2022/12/17 20:53:06;;;;;;;;;33.00;29.25;;;;;;;;5101846;28;8801;-78
2022/12/17 20:55:31;;;;;;;;;36.75;33.25;;;;;;;;5107872;28;11529;-78
2022/12/17 20:57:57;;;;;;;;;37.75;31.75;;;;;;;;5109879;28;8831;-78
2022/12/17 21:00:22;;;;;;;;;45.00;33.50;;;;;;;;5109442;28;8889;-78
2022/12/17 21:02:48;;;;;;;;;33.25;31.25;;;;;;;;5108043;28;8817;-78
2022/12/17 21:05:13;;;;;;;;;31.25;28.50;;;;;;;;5104818;28;8793;-77
2022/12/17 21:07:39;;;;;;;;;34.50;29.50;;;;;;;;5090099;28;8800;-78
2022/12/17 21:10:04;;;;;;;;;33.75;27.00;;;;;;;;5109397;28;8894;-77
2022/12/17 21:13:27;;;;;;;;;18.00;11.75;;;;;;;;5110462;27;8797;-76
2022/12/17 21:15:15;;;;;;;;;29.00;26.50;;;;;;;;5110743;28;8801;-83
2022/12/17 21:17:40;;;;;;;;;22.75;18.25;;;;;;;;5108406;28;11531;-73
2022/12/17 21:20:06;;;;;;;;;24.75;22.50;;;;;;;;5110478;28;9484;-77
2022/12/17 21:22:31;;;;;;;;;31.25;29.00;;;;;;;;5110520;28;8785;-74
2022/12/17 21:24:56;;;;;;;;;28.00;26.75;;;;;;;;5110061;28;9973;-78
2022/12/17 21:27:21;;;;;;;;;30.75;27.00;;;;;;;;5110232;28;8781;-78
2022/12/17 21:29:47;;;;;;;;;31.00;28.00;;;;;;;;5108760;28;8878;-75
2022/12/17 21:32:12;;;;;;;;;29.50;23.25;;;;;;;;5108107;28;8821;-76
2022/12/17 21:34:37;;;;;;;;;25.00;18.50;;;;;;;;5110029;28;9516;-78
2022/12/17 21:37:03;;;;;;;;;29.00;29.00;;;;;;;;5110120;28;8903;-76
2022/12/17 21:39:29;;;;;;;;;34.00;29.25;;;;;;;;5109549;28;8853;-76
2022/12/17 21:44:38;;;;;;;;;31.00;26.25;;;;;;;;5134621;27;8767;-79
2022/12/17 21:47:03;;;;;;;;;30.00;23.00;;;;;;;;5119565;27;11613;-75
2022/12/17 21:49:29;;;;;;;;;27.75;26.50;;;;;;;;5114014;27;8829;-76
2022/12/17 21:51:54;;;;;;;;;25.50;25.25;;;;;;;;5119796;27;8877;-77
2022/12/17 21:54:19;;;;;;;;;27.00;24.75;;;;;;;;5134259;27;8783;-76
2022/12/17 21:56:45;;;;;;;;;26.67;26.00;;;;;;;;5134861;27;8933;-76
2022/12/17 21:59:10;;;;;;;;;27.50;26.00;;;;;;;;5134297;27;8909;-77
2022/12/17 22:01:35;;;;;;;;;28.50;24.25;;;;;;;;5125413;27;8863;-77
2022/12/17 22:04:03;;;;;;;;;32.00;22.75;;;;;;;;5112929;27;8827;-75
2022/12/17 22:06:30;;;;;;;;;25.75;22.25;;;;;;;;5115410;27;8809;-75
2022/12/17 22:08:58;;;;;;;;;23.00;21.00;;;;;;;;5114635;27;11502;-75
2022/12/17 22:11:24;;;;;;;;;24.50;24.50;;;;;;;;5114398;27;12197;-74
2022/12/17 22:14:01;;;;;;;;;28.25;24.00;;;;;;;;5113427;28;11477;-76
2022/12/17 22:16:31;;;;;;;;;34.67;31.33;;;;;;;;5112389;28;9511;-74
2022/12/17 22:18:58;;;;;;;;;29.75;25.00;;;;;;;;5113253;28;11538;-73
2022/12/17 22:21:23;;;;;;;;;28.00;25.00;;;;;;;;5112063;28;11510;-78
2022/12/17 22:23:48;;;;;;;;;35.25;29.75;;;;;;;;5113559;28;11500;-75
2022/12/17 22:26:15;;;;;;;;;33.75;29.75;;;;;;;;5113366;28;9829;-78
2022/12/17 22:28:47;;;;;;;;;33.75;27.50;;;;;;;;5114300;28;8801;-80
2022/12/17 22:33:57;;;;;;;;;26.00;26.00;;;;;;;;5114072;28;11470;-77
2022/12/17 22:36:22;;;;;;;;;29.25;25.75;;;;;;;;5113425;28;11526;-76
2022/12/17 22:38:47;;;;;;;;;30.50;27.75;;;;;;;;5113453;28;8809;-76
2022/12/17 22:44:00;;;;;;;;;38.33;28.67;;;;;;;;5112372;28;8789;-76
2022/12/17 22:46:26;;;;;;;;;33.50;31.75;;;;;;;;5112177;28;11500;-75
2022/12/17 22:48:51;;;;;;;;;35.33;32.00;;;;;;;;5112355;28;12252;-75
2022/12/17 22:51:16;;;;;;;;;33.00;31.50;;;;;;;;5111743;28;8781;-76
2022/12/17 22:53:42;;;;;;;;;36.00;32.33;;;;;;;;5112193;28;8808;-76
2022/12/17 22:56:07;;;;;;;;;29.00;29.00;;;;;;;;5113209;28;8793;-76
2022/12/17 22:58:34;;;;;;;;;36.00;31.50;;;;;;;;5113161;28;8839;-77
2022/12/17 23:01:00;;;;;;;;;30.75;29.00;;;;;;;;5113654;28;8785;-75
2022/12/17 23:03:25;;;;;;;;;32.00;30.50;;;;;;;;5111768;28;11509;-76
2022/12/17 23:05:50;;;;;;;;;29.50;28.25;;;;;;;;5113061;28;8797;-76
2022/12/17 23:08:16;;;;;;;;;36.00;29.00;;;;;;;;5113295;28;8895;-76
2022/12/17 23:10:41;;;;;;;;;33.00;29.50;;;;;;;;5113199;28;8846;-76
2022/12/17 23:13:06;;;;;;;;;32.75;28.25;;;;;;;;5113175;28;8793;-75
2022/12/17 23:15:34;;;;;;;;;29.75;29.50;;;;;;;;5112886;28;8789;-76
2022/12/17 23:18:00;;;;;;;;;32.33;30.33;;;;;;;;5112792;28;8797;-75
2022/12/17 23:20:27;;;;;;;;;37.33;27.33;;;;;;;;5113156;28;11754;-76
2022/12/17 23:22:52;;;;;;;;;26.67;24.67;;;;;;;;5111818;28;11501;-76
2022/12/17 23:25:18;;;;;;;;;30.33;26.67;;;;;;;;5112821;28;11496;-75
2022/12/17 23:27:43;;;;;;;;;27.00;25.00;;;;;;;;5113089;28;8785;-76
2022/12/17 23:30:09;;;;;;;;;26.00;23.00;;;;;;;;5111520;28;8793;-75
2022/12/17 23:32:35;;;;;;;;;27.67;24.33;;;;;;;;5112653;28;8916;-76
2022/12/17 23:35:00;;;;;;;;;30.75;25.00;;;;;;;;5111224;28;11622;-76
2022/12/17 23:37:25;;;;;;;;;24.75;22.00;;;;;;;;5112686;27;8781;-76
2022/12/17 23:39:51;;;;;;;;;20.50;14.00;;;;;;;;5111308;28;8978;-76
2022/12/17 23:42:16;;;;;;;;;24.00;22.25;;;;;;;;5112704;28;8806;-76
2022/12/17 23:44:41;;;;;;;;;25.75;23.50;;;;;;;;5112703;28;8773;-76
2022/12/17 23:47:06;;;;;;;;;23.50;21.50;;;;;;;;5112425;28;8904;-76
2022/12/17 23:49:32;;;;;;;;;21.00;20.75;;;;;;;;5112546;28;8778;-76
2022/12/17 23:51:57;;;;;;;;;16.67;13.00;;;;;;;;5112503;28;8785;-76
2022/12/17 23:54:23;;;;;;;;;27.33;24.33;;;;;;;;5112348;28;8781;-75
2022/12/17 23:56:48;;;;;;;;;27.25;24.50;;;;;;;;5112363;28;8901;-76
2022/12/17 23:59:13;;;;;;;;;27.00;22.00;;;;;;;;5110603;28;8868;-75
